sensor_id;sensor_type;location;lat;lon;timestamp;temperature;humidity
13796;SHT30;40911;51.552;9.874;2022-08-02T00:03:10;15.47;90.80
13796;SHT30;40911;51.552;9.874;2022-08-02T00:05:32;15.53;90.48
13796;SHT30;40911;51.552;9.874;2022-08-02T00:07:53;15.38;91.16
13796;SHT30;40911;51.552;9.874;2022-08-02T00:10:15;15.22;91.50
13796;SHT30;40911;51.552;9.874;2022-08-02T00:12:37;15.16;91.71
13796;SHT30;40911;51.552;9.874;2022-08-02T00:14:59;15.12;91.98
13796;SHT30;40911;51.552;9.874;2022-08-02T00:17:21;15.19;91.43
13796;SHT30;40911;51.552;9.874;2022-08-02T00:19:44;15.15;91.33
13796;SHT30;40911;51.552;9.874;2022-08-02T00:22:06;14.80;92.12
13796;SHT30;40911;51.552;9.874;2022-08-02T00:24:27;14.83;92.49
13796;SHT30;40911;51.552;9.874;2022-08-02T00:26:49;14.96;91.25
13796;SHT30;40911;51.552;9.874;2022-08-02T00:29:10;14.73;92.27
13796;SHT30;40911;51.552;9.874;2022-08-02T00:31:32;14.52;93.32
13796;SHT30;40911;51.552;9.874;2022-08-02T00:33:54;14.57;93.41
13796;SHT30;40911;51.552;9.874;2022-08-02T00:36:16;14.44;93.18
13796;SHT30;40911;51.552;9.874;2022-08-02T00:38:38;14.78;92.78
13796;SHT30;40911;51.552;9.874;2022-08-02T00:41:00;14.81;92.04
13796;SHT30;40911;51.552;9.874;2022-08-02T00:43:21;14.89;92.11
13796;SHT30;40911;51.552;9.874;2022-08-02T00:45:43;14.60;92.88
13796;SHT30;40911;51.552;9.874;2022-08-02T00:48:07;14.74;92.58
13796;SHT30;40911;51.552;9.874;2022-08-02T00:50:29;14.80;92.16
13796;SHT30;40911;51.552;9.874;2022-08-02T00:52:52;14.70;92.40
13796;SHT30;40911;51.552;9.874;2022-08-02T00:55:14;14.71;92.34
13796;SHT30;40911;51.552;9.874;2022-08-02T00:57:36;14.73;91.90
13796;SHT30;40911;51.552;9.874;2022-08-02T00:59:57;14.59;92.18
13796;SHT30;40911;51.552;9.874;2022-08-02T01:02:19;14.67;91.96
13796;SHT30;40911;51.552;9.874;2022-08-02T01:04:41;14.80;91.80
13796;SHT30;40911;51.552;9.874;2022-08-02T01:07:03;14.92;91.42
13796;SHT30;40911;51.552;9.874;2022-08-02T01:09:26;14.65;91.81
13796;SHT30;40911;51.552;9.874;2022-08-02T01:11:48;14.52;92.79
13796;SHT30;40911;51.552;9.874;2022-08-02T01:14:10;14.70;92.03
13796;SHT30;40911;51.552;9.874;2022-08-02T01:16:37;14.61;92.04
13796;SHT30;40911;51.552;9.874;2022-08-02T01:21:52;14.63;92.18
13796;SHT30;40911;51.552;9.874;2022-08-02T01:24:28;14.67;92.15
13796;SHT30;40911;51.552;9.874;2022-08-02T01:26:56;14.63;92.28
13796;SHT30;40911;51.552;9.874;2022-08-02T01:29:27;14.56;92.39
13796;SHT30;40911;51.552;9.874;2022-08-02T01:31:54;14.73;92.02
13796;SHT30;40911;51.552;9.874;2022-08-02T01:34:21;14.61;92.31
13796;SHT30;40911;51.552;9.874;2022-08-02T01:37:06;14.60;91.76
13796;SHT30;40911;51.552;9.874;2022-08-02T01:39:33;14.65;91.77
13796;SHT30;40911;51.552;9.874;2022-08-02T01:41:56;14.44;91.96
13796;SHT30;40911;51.552;9.874;2022-08-02T01:44:21;14.56;91.95
13796;SHT30;40911;51.552;9.874;2022-08-02T01:46:45;14.30;92.75
13796;SHT30;40911;51.552;9.874;2022-08-02T01:49:14;14.33;92.15
13796;SHT30;40911;51.552;9.874;2022-08-02T01:51:39;14.41;91.94
13796;SHT30;40911;51.552;9.874;2022-08-02T01:54:21;14.47;91.98
13796;SHT30;40911;51.552;9.874;2022-08-02T01:56:46;14.40;92.15
13796;SHT30;40911;51.552;9.874;2022-08-02T01:59:12;14.61;91.62
13796;SHT30;40911;51.552;9.874;2022-08-02T02:01:35;14.19;93.21
13796;SHT30;40911;51.552;9.874;2022-08-02T02:03:58;14.16;93.16
13796;SHT30;40911;51.552;9.874;2022-08-02T02:06:22;14.06;92.59
13796;SHT30;40911;51.552;9.874;2022-08-02T02:08:44;14.16;92.05
13796;SHT30;40911;51.552;9.874;2022-08-02T02:11:06;14.13;92.15
13796;SHT30;40911;51.552;9.874;2022-08-02T02:13:30;14.15;91.89
13796;SHT30;40911;51.552;9.874;2022-08-02T02:15:53;14.09;92.04
13796;SHT30;40911;51.552;9.874;2022-08-02T02:18:20;14.05;92.56
13796;SHT30;40911;51.552;9.874;2022-08-02T02:20:43;14.02;93.11
13796;SHT30;40911;51.552;9.874;2022-08-02T02:23:05;14.02;92.79
13796;SHT30;40911;51.552;9.874;2022-08-02T02:25:27;14.02;92.83
13796;SHT30;40911;51.552;9.874;2022-08-02T02:27:51;14.08;92.77
13796;SHT30;40911;51.552;9.874;2022-08-02T02:30:15;14.04;92.45
13796;SHT30;40911;51.552;9.874;2022-08-02T02:32:38;14.02;92.21
13796;SHT30;40911;51.552;9.874;2022-08-02T02:35:04;14.05;92.06
13796;SHT30;40911;51.552;9.874;2022-08-02T02:37:27;13.78;92.61
13796;SHT30;40911;51.552;9.874;2022-08-02T02:39:50;13.87;92.38
13796;SHT30;40911;51.552;9.874;2022-08-02T02:42:17;13.99;92.04
13796;SHT30;40911;51.552;9.874;2022-08-02T02:44:40;13.91;91.90
13796;SHT30;40911;51.552;9.874;2022-08-02T02:47:04;13.80;92.57
13796;SHT30;40911;51.552;9.874;2022-08-02T02:49:26;13.80;92.40
13796;SHT30;40911;51.552;9.874;2022-08-02T02:51:50;13.91;92.21
13796;SHT30;40911;51.552;9.874;2022-08-02T02:54:14;13.57;92.28
13796;SHT30;40911;51.552;9.874;2022-08-02T02:56:38;13.74;92.27
13796;SHT30;40911;51.552;9.874;2022-08-02T02:59:01;13.70;92.16
13796;SHT30;40911;51.552;9.874;2022-08-02T03:01:23;13.61;92.43
13796;SHT30;40911;51.552;9.874;2022-08-02T03:03:48;13.70;92.50
13796;SHT30;40911;51.552;9.874;2022-08-02T03:06:12;13.61;92.85
13796;SHT30;40911;51.552;9.874;2022-08-02T03:08:35;13.58;92.30
13796;SHT30;40911;51.552;9.874;2022-08-02T03:10:57;13.32;92.93
13796;SHT30;40911;51.552;9.874;2022-08-02T03:13:19;13.08;94.07
13796;SHT30;40911;51.552;9.874;2022-08-02T03:15:41;12.92;94.33
13796;SHT30;40911;51.552;9.874;2022-08-02T03:18:04;13.36;93.14
13796;SHT30;40911;51.552;9.874;2022-08-02T03:20:27;13.32;92.51
13796;SHT30;40911;51.552;9.874;2022-08-02T03:22:48;13.41;92.53
13796;SHT30;40911;51.552;9.874;2022-08-02T03:25:12;13.12;92.84
13796;SHT30;40911;51.552;9.874;2022-08-02T03:27:34;13.39;92.80
13796;SHT30;40911;51.552;9.874;2022-08-02T03:29:56;13.41;92.59
13796;SHT30;40911;51.552;9.874;2022-08-02T03:32:18;13.24;93.11
13796;SHT30;40911;51.552;9.874;2022-08-02T03:34:40;13.23;93.52
13796;SHT30;40911;51.552;9.874;2022-08-02T03:37:02;13.23;93.67
13796;SHT30;40911;51.552;9.874;2022-08-02T03:39:24;13.02;95.02
13796;SHT30;40911;51.552;9.874;2022-08-02T03:41:48;12.96;95.58
13796;SHT30;40911;51.552;9.874;2022-08-02T03:44:11;13.11;95.84
13796;SHT30;40911;51.552;9.874;2022-08-02T03:46:34;13.54;94.20
13796;SHT30;40911;51.552;9.874;2022-08-02T03:48:59;13.68;93.37
13796;SHT30;40911;51.552;9.874;2022-08-02T03:51:21;13.78;93.25
13796;SHT30;40911;51.552;9.874;2022-08-02T03:53:43;13.77;92.58
13796;SHT30;40911;51.552;9.874;2022-08-02T03:56:06;13.70;92.88
13796;SHT30;40911;51.552;9.874;2022-08-02T03:58:29;13.82;92.55
13796;SHT30;40911;51.552;9.874;2022-08-02T04:00:51;13.89;92.12
13796;SHT30;40911;51.552;9.874;2022-08-02T04:03:14;13.88;92.77
13796;SHT30;40911;51.552;9.874;2022-08-02T04:05:36;13.98;92.40
13796;SHT30;40911;51.552;9.874;2022-08-02T04:07:57;13.95;92.47
13796;SHT30;40911;51.552;9.874;2022-08-02T04:10:19;13.75;93.16
13796;SHT30;40911;51.552;9.874;2022-08-02T04:12:40;13.73;94.17
13796;SHT30;40911;51.552;9.874;2022-08-02T04:15:03;13.68;94.82
13796;SHT30;40911;51.552;9.874;2022-08-02T04:17:27;13.77;94.64
13796;SHT30;40911;51.552;9.874;2022-08-02T04:19:54;13.77;94.72
13796;SHT30;40911;51.552;9.874;2022-08-02T04:22:20;13.82;95.25
13796;SHT30;40911;51.552;9.874;2022-08-02T04:24:47;14.01;94.71
13796;SHT30;40911;51.552;9.874;2022-08-02T04:27:10;14.09;94.07
13796;SHT30;40911;51.552;9.874;2022-08-02T04:29:32;14.09;94.10
13796;SHT30;40911;51.552;9.874;2022-08-02T04:31:57;13.71;95.90
13796;SHT30;40911;51.552;9.874;2022-08-02T04:34:20;13.99;95.41
13796;SHT30;40911;51.552;9.874;2022-08-02T04:36:42;13.77;95.96
13796;SHT30;40911;51.552;9.874;2022-08-02T04:39:03;13.81;96.40
13796;SHT30;40911;51.552;9.874;2022-08-02T04:41:35;14.01;95.51
13796;SHT30;40911;51.552;9.874;2022-08-02T04:43:57;14.04;95.75
13796;SHT30;40911;51.552;9.874;2022-08-02T04:46:18;14.04;95.51
13796;SHT30;40911;51.552;9.874;2022-08-02T04:48:41;14.09;95.62
13796;SHT30;40911;51.552;9.874;2022-08-02T04:51:03;14.33;94.97
13796;SHT30;40911;51.552;9.874;2022-08-02T04:53:24;13.95;96.41
13796;SHT30;40911;51.552;9.874;2022-08-02T04:55:46;14.33;95.30
13796;SHT30;40911;51.552;9.874;2022-08-02T04:58:08;14.33;95.11
13796;SHT30;40911;51.552;9.874;2022-08-02T05:00:29;14.06;96.36
13796;SHT30;40911;51.552;9.874;2022-08-02T05:02:51;14.23;95.88
13796;SHT30;40911;51.552;9.874;2022-08-02T05:05:14;14.25;96.05
13796;SHT30;40911;51.552;9.874;2022-08-02T05:07:36;14.23;95.84
13796;SHT30;40911;51.552;9.874;2022-08-02T05:09:57;14.44;95.46
13796;SHT30;40911;51.552;9.874;2022-08-02T05:12:19;14.34;96.00
13796;SHT30;40911;51.552;9.874;2022-08-02T05:14:41;14.32;95.96
13796;SHT30;40911;51.552;9.874;2022-08-02T05:17:02;14.34;96.00
13796;SHT30;40911;51.552;9.874;2022-08-02T05:19:24;13.81;97.14
13796;SHT30;40911;51.552;9.874;2022-08-02T05:21:47;14.20;97.03
13796;SHT30;40911;51.552;9.874;2022-08-02T05:24:08;14.26;97.58
13796;SHT30;40911;51.552;9.874;2022-08-02T05:26:29;14.57;96.40
13796;SHT30;40911;51.552;9.874;2022-08-02T05:28:51;14.64;95.76
13796;SHT30;40911;51.552;9.874;2022-08-02T05:31:12;14.83;95.03
13796;SHT30;40911;51.552;9.874;2022-08-02T05:33:34;14.71;95.24
13796;SHT30;40911;51.552;9.874;2022-08-02T05:35:55;14.74;95.29
13796;SHT30;40911;51.552;9.874;2022-08-02T05:38:19;14.81;95.22
13796;SHT30;40911;51.552;9.874;2022-08-02T05:40:41;14.40;95.65
13796;SHT30;40911;51.552;9.874;2022-08-02T05:43:09;14.43;96.55
13796;SHT30;40911;51.552;9.874;2022-08-02T05:45:32;14.57;96.06
13796;SHT30;40911;51.552;9.874;2022-08-02T05:47:54;14.73;95.56
13796;SHT30;40911;51.552;9.874;2022-08-02T05:50:16;14.20;96.27
13796;SHT30;40911;51.552;9.874;2022-08-02T05:52:43;14.32;97.32
13796;SHT30;40911;51.552;9.874;2022-08-02T05:55:08;14.41;97.24
13796;SHT30;40911;51.552;9.874;2022-08-02T05:57:36;13.94;97.11
13796;SHT30;40911;51.552;9.874;2022-08-02T06:00:03;13.98;97.78
13796;SHT30;40911;51.552;9.874;2022-08-02T06:02:28;14.06;97.92
13796;SHT30;40911;51.552;9.874;2022-08-02T06:04:51;13.73;98.45
13796;SHT30;40911;51.552;9.874;2022-08-02T06:07:14;14.22;98.94
13796;SHT30;40911;51.552;9.874;2022-08-02T06:09:37;14.54;97.07
13796;SHT30;40911;51.552;9.874;2022-08-02T06:12:00;14.74;96.31
13796;SHT30;40911;51.552;9.874;2022-08-02T06:14:23;14.71;96.73
13796;SHT30;40911;51.552;9.874;2022-08-02T06:16:45;15.04;95.27
13796;SHT30;40911;51.552;9.874;2022-08-02T06:19:06;14.91;95.41
13796;SHT30;40911;51.552;9.874;2022-08-02T06:21:28;14.96;95.26
13796;SHT30;40911;51.552;9.874;2022-08-02T06:23:50;15.06;95.84
13796;SHT30;40911;51.552;9.874;2022-08-02T06:26:12;15.36;95.28
13796;SHT30;40911;51.552;9.874;2022-08-02T06:28:36;15.33;95.10
13796;SHT30;40911;51.552;9.874;2022-08-02T06:30:58;14.88;96.33
13796;SHT30;40911;51.552;9.874;2022-08-02T06:33:19;15.25;95.60
13796;SHT30;40911;51.552;9.874;2022-08-02T06:35:43;14.95;96.26
13796;SHT30;40911;51.552;9.874;2022-08-02T06:38:05;15.19;96.38
13796;SHT30;40911;51.552;9.874;2022-08-02T06:40:29;15.46;94.97
13796;SHT30;40911;51.552;9.874;2022-08-02T06:42:51;15.01;96.22
13796;SHT30;40911;51.552;9.874;2022-08-02T06:45:17;15.26;95.74
13796;SHT30;40911;51.552;9.874;2022-08-02T06:47:38;15.66;95.61
13796;SHT30;40911;51.552;9.874;2022-08-02T06:50:00;15.56;94.51
13796;SHT30;40911;51.552;9.874;2022-08-02T06:52:22;15.26;95.96
13796;SHT30;40911;51.552;9.874;2022-08-02T06:54:44;15.63;94.98
13796;SHT30;40911;51.552;9.874;2022-08-02T06:57:06;15.81;94.77
13796;SHT30;40911;51.552;9.874;2022-08-02T06:59:28;15.57;95.26
13796;SHT30;40911;51.552;9.874;2022-08-02T07:01:51;16.19;94.10
13796;SHT30;40911;51.552;9.874;2022-08-02T07:04:13;16.29;94.07
13796;SHT30;40911;51.552;9.874;2022-08-02T07:06:35;16.66;93.37
13796;SHT30;40911;51.552;9.874;2022-08-02T07:08:56;16.87;93.14
13796;SHT30;40911;51.552;9.874;2022-08-02T07:11:18;17.00;92.74
13796;SHT30;40911;51.552;9.874;2022-08-02T07:13:39;17.25;91.90
13796;SHT30;40911;51.552;9.874;2022-08-02T07:16:01;17.25;91.38
13796;SHT30;40911;51.552;9.874;2022-08-02T07:18:25;16.64;91.94
13796;SHT30;40911;51.552;9.874;2022-08-02T07:20:46;17.00;92.66
13796;SHT30;40911;51.552;9.874;2022-08-02T07:26:36;17.42;90.39
13796;SHT30;40911;51.552;9.874;2022-08-02T07:29:09;17.50;91.14
13796;SHT30;40911;51.552;9.874;2022-08-02T07:32:23;18.14;90.48
13796;SHT30;40911;51.552;9.874;2022-08-02T07:37:32;19.14;88.29
13796;SHT30;40911;51.552;9.874;2022-08-02T07:40:08;19.25;87.49
13796;SHT30;40911;51.552;9.874;2022-08-02T07:49:59;19.86;86.49
13796;SHT30;40911;51.552;9.874;2022-08-02T07:51:21;20.00;85.88
13796;SHT30;40911;51.552;9.874;2022-08-02T07:59:20;20.10;83.76
13796;SHT30;40911;51.552;9.874;2022-08-02T08:01:49;20.77;83.55
13796;SHT30;40911;51.552;9.874;2022-08-02T08:05:21;20.29;83.54
13796;SHT30;40911;51.552;9.874;2022-08-02T08:10:45;20.90;82.02
13796;SHT30;40911;51.552;9.874;2022-08-02T08:13:10;21.68;81.62
13796;SHT30;40911;51.552;9.874;2022-08-02T08:15:39;21.95;80.05
13796;SHT30;40911;51.552;9.874;2022-08-02T08:18:01;21.95;79.86
13796;SHT30;40911;51.552;9.874;2022-08-02T08:20:25;22.24;78.64
13796;SHT30;40911;51.552;9.874;2022-08-02T08:22:48;22.03;79.70
13796;SHT30;40911;51.552;9.874;2022-08-02T08:25:10;22.63;75.85
13796;SHT30;40911;51.552;9.874;2022-08-02T08:27:33;23.05;76.63
13796;SHT30;40911;51.552;9.874;2022-08-02T08:29:54;22.72;75.53
13796;SHT30;40911;51.552;9.874;2022-08-02T08:32:25;22.94;75.74
13796;SHT30;40911;51.552;9.874;2022-08-02T08:34:46;22.84;75.73
13796;SHT30;40911;51.552;9.874;2022-08-02T08:37:08;23.18;74.33
13796;SHT30;40911;51.552;9.874;2022-08-02T08:39:29;23.36;73.76
13796;SHT30;40911;51.552;9.874;2022-08-02T08:41:51;23.51;73.21
13796;SHT30;40911;51.552;9.874;2022-08-02T08:44:13;23.33;74.63
13796;SHT30;40911;51.552;9.874;2022-08-02T08:46:35;23.15;72.81
13796;SHT30;40911;51.552;9.874;2022-08-02T08:49:00;23.27;71.74
13796;SHT30;40911;51.552;9.874;2022-08-02T08:51:23;23.13;73.60
13796;SHT30;40911;51.552;9.874;2022-08-02T08:53:54;23.62;72.11
13796;SHT30;40911;51.552;9.874;2022-08-02T08:56:36;23.19;72.64
13796;SHT30;40911;51.552;9.874;2022-08-02T08:58:58;22.81;73.16
13796;SHT30;40911;51.552;9.874;2022-08-02T09:01:20;22.72;73.32
13796;SHT30;40911;51.552;9.874;2022-08-02T09:03:41;22.71;71.88
13796;SHT30;40911;51.552;9.874;2022-08-02T09:06:05;22.63;73.32
13796;SHT30;40911;51.552;9.874;2022-08-02T09:08:26;23.57;72.60
13796;SHT30;40911;51.552;9.874;2022-08-02T09:10:48;24.05;69.88
13796;SHT30;40911;51.552;9.874;2022-08-02T09:13:11;24.40;69.08
13796;SHT30;40911;51.552;9.874;2022-08-02T09:15:32;23.98;69.90
13796;SHT30;40911;51.552;9.874;2022-08-02T09:17:54;24.18;65.02
13796;SHT30;40911;51.552;9.874;2022-08-02T09:20:19;23.53;65.62
13796;SHT30;40911;51.552;9.874;2022-08-02T09:22:45;23.61;66.32
13796;SHT30;40911;51.552;9.874;2022-08-02T09:25:24;23.92;65.79
13796;SHT30;40911;51.552;9.874;2022-08-02T09:27:46;24.13;63.96
13796;SHT30;40911;51.552;9.874;2022-08-02T09:30:12;24.80;63.50
13796;SHT30;40911;51.552;9.874;2022-08-02T09:32:43;24.54;63.80
13796;SHT30;40911;51.552;9.874;2022-08-02T09:35:06;24.37;62.90
13796;SHT30;40911;51.552;9.874;2022-08-02T09:37:28;23.81;62.94
13796;SHT30;40911;51.552;9.874;2022-08-02T09:39:52;24.42;64.47
13796;SHT30;40911;51.552;9.874;2022-08-02T09:42:13;24.73;62.36
13796;SHT30;40911;51.552;9.874;2022-08-02T09:44:38;24.33;62.23
13796;SHT30;40911;51.552;9.874;2022-08-02T09:47:00;24.60;61.92
13796;SHT30;40911;51.552;9.874;2022-08-02T09:49:33;24.37;61.42
13796;SHT30;40911;51.552;9.874;2022-08-02T09:51:55;25.21;63.37
13796;SHT30;40911;51.552;9.874;2022-08-02T09:54:17;25.11;60.62
13796;SHT30;40911;51.552;9.874;2022-08-02T09:56:41;24.37;61.47
13796;SHT30;40911;51.552;9.874;2022-08-02T09:59:05;24.20;60.53
13796;SHT30;40911;51.552;9.874;2022-08-02T10:01:30;25.15;61.97
13796;SHT30;40911;51.552;9.874;2022-08-02T10:03:52;25.26;60.10
13796;SHT30;40911;51.552;9.874;2022-08-02T10:06:14;25.86;60.48
13796;SHT30;40911;51.552;9.874;2022-08-02T10:08:35;25.28;59.81
13796;SHT30;40911;51.552;9.874;2022-08-02T10:10:57;24.67;62.46
13796;SHT30;40911;51.552;9.874;2022-08-02T10:13:25;25.32;61.66
13796;SHT30;40911;51.552;9.874;2022-08-02T10:15:47;26.01;58.23
13796;SHT30;40911;51.552;9.874;2022-08-02T10:18:08;26.53;60.69
13796;SHT30;40911;51.552;9.874;2022-08-02T10:20:30;25.53;58.88
13796;SHT30;40911;51.552;9.874;2022-08-02T10:22:53;26.51;57.66
13796;SHT30;40911;51.552;9.874;2022-08-02T10:25:15;26.02;55.85
13796;SHT30;40911;51.552;9.874;2022-08-02T10:27:37;26.25;56.01
13796;SHT30;40911;51.552;9.874;2022-08-02T10:30:00;25.87;56.26
13796;SHT30;40911;51.552;9.874;2022-08-02T10:32:23;25.98;55.23
13796;SHT30;40911;51.552;9.874;2022-08-02T10:34:47;26.72;55.27
13796;SHT30;40911;51.552;9.874;2022-08-02T10:37:09;26.32;56.69
13796;SHT30;40911;51.552;9.874;2022-08-02T10:39:37;25.94;57.56
13796;SHT30;40911;51.552;9.874;2022-08-02T10:41:58;26.07;57.91
13796;SHT30;40911;51.552;9.874;2022-08-02T10:44:21;26.36;55.67
13796;SHT30;40911;51.552;9.874;2022-08-02T10:46:44;27.04;56.17
13796;SHT30;40911;51.552;9.874;2022-08-02T10:49:06;27.42;55.35
13796;SHT30;40911;51.552;9.874;2022-08-02T10:54:08;26.32;55.52
13796;SHT30;40911;51.552;9.874;2022-08-02T10:56:44;26.57;55.28
13796;SHT30;40911;51.552;9.874;2022-08-02T11:01:44;26.20;55.67
13796;SHT30;40911;51.552;9.874;2022-08-02T11:04:06;27.35;55.85
13796;SHT30;40911;51.552;9.874;2022-08-02T11:06:27;26.36;55.19
13796;SHT30;40911;51.552;9.874;2022-08-02T11:08:49;26.56;55.66
13796;SHT30;40911;51.552;9.874;2022-08-02T11:11:14;26.35;55.86
13796;SHT30;40911;51.552;9.874;2022-08-02T11:16:12;27.01;55.99
13796;SHT30;40911;51.552;9.874;2022-08-02T11:21:22;27.52;54.64
13796;SHT30;40911;51.552;9.874;2022-08-02T11:23:43;27.57;54.48
13796;SHT30;40911;51.552;9.874;2022-08-02T11:28:42;27.97;55.03
13796;SHT30;40911;51.552;9.874;2022-08-02T11:31:09;26.92;54.37
13796;SHT30;40911;51.552;9.874;2022-08-02T11:33:30;27.48;54.01
13796;SHT30;40911;51.552;9.874;2022-08-02T11:35:52;28.05;52.98
13796;SHT30;40911;51.552;9.874;2022-08-02T11:38:21;27.89;52.87
13796;SHT30;40911;51.552;9.874;2022-08-02T11:40:43;28.16;52.34
13796;SHT30;40911;51.552;9.874;2022-08-02T11:43:14;27.79;52.72
13796;SHT30;40911;51.552;9.874;2022-08-02T11:45:36;27.90;53.08
13796;SHT30;40911;51.552;9.874;2022-08-02T11:47:57;27.45;53.37
13796;SHT30;40911;51.552;9.874;2022-08-02T11:50:19;27.41;54.58
13796;SHT30;40911;51.552;9.874;2022-08-02T11:52:44;27.72;53.92
13796;SHT30;40911;51.552;9.874;2022-08-02T11:55:07;27.73;53.76
13796;SHT30;40911;51.552;9.874;2022-08-02T11:57:29;28.35;53.11
13796;SHT30;40911;51.552;9.874;2022-08-02T11:59:51;27.97;52.67
13796;SHT30;40911;51.552;9.874;2022-08-02T12:02:13;28.86;53.14
13796;SHT30;40911;51.552;9.874;2022-08-02T12:04:35;27.63;52.04
13796;SHT30;40911;51.552;9.874;2022-08-02T12:06:58;28.96;52.32
13796;SHT30;40911;51.552;9.874;2022-08-02T12:09:19;28.45;51.34
13796;SHT30;40911;51.552;9.874;2022-08-02T12:11:43;28.96;52.27
13796;SHT30;40911;51.552;9.874;2022-08-02T12:14:08;28.31;51.74
13796;SHT30;40911;51.552;9.874;2022-08-02T12:16:32;28.86;49.02
13796;SHT30;40911;51.552;9.874;2022-08-02T12:19:12;28.13;49.05
13796;SHT30;40911;51.552;9.874;2022-08-02T12:21:42;28.37;48.11
13796;SHT30;40911;51.552;9.874;2022-08-02T12:24:04;28.58;48.48
13796;SHT30;40911;51.552;9.874;2022-08-02T12:26:25;29.20;46.58
13796;SHT30;40911;51.552;9.874;2022-08-02T12:28:53;29.86;46.87
13796;SHT30;40911;51.552;9.874;2022-08-02T12:31:15;29.48;46.22
13796;SHT30;40911;51.552;9.874;2022-08-02T12:33:44;29.44;45.02
13796;SHT30;40911;51.552;9.874;2022-08-02T12:36:13;29.36;46.01
13796;SHT30;40911;51.552;9.874;2022-08-02T12:38:34;29.44;44.57
13796;SHT30;40911;51.552;9.874;2022-08-02T12:40:56;29.82;44.47
13796;SHT30;40911;51.552;9.874;2022-08-02T12:43:32;29.43;45.51
13796;SHT30;40911;51.552;9.874;2022-08-02T12:45:55;30.15;45.45
13796;SHT30;40911;51.552;9.874;2022-08-02T12:48:28;29.84;47.28
13796;SHT30;40911;51.552;9.874;2022-08-02T12:50:50;30.34;44.67
13796;SHT30;40911;51.552;9.874;2022-08-02T12:53:13;29.54;45.73
13796;SHT30;40911;51.552;9.874;2022-08-02T12:55:35;28.86;47.00
13796;SHT30;40911;51.552;9.874;2022-08-02T12:58:00;29.50;46.24
13796;SHT30;40911;51.552;9.874;2022-08-02T13:00:22;30.57;46.00
13796;SHT30;40911;51.552;9.874;2022-08-02T13:02:45;30.12;45.63
13796;SHT30;40911;51.552;9.874;2022-08-02T13:05:07;29.68;46.56
13796;SHT30;40911;51.552;9.874;2022-08-02T13:07:28;29.67;45.77
13796;SHT30;40911;51.552;9.874;2022-08-02T13:09:50;29.34;45.98
13796;SHT30;40911;51.552;9.874;2022-08-02T13:12:14;29.71;44.99
13796;SHT30;40911;51.552;9.874;2022-08-02T13:14:36;29.22;46.78
13796;SHT30;40911;51.552;9.874;2022-08-02T13:16:57;29.30;47.27
13796;SHT30;40911;51.552;9.874;2022-08-02T13:19:20;29.47;45.88
13796;SHT30;40911;51.552;9.874;2022-08-02T13:21:43;29.59;47.66
13796;SHT30;40911;51.552;9.874;2022-08-02T13:24:05;28.98;46.98
13796;SHT30;40911;51.552;9.874;2022-08-02T13:26:27;30.16;47.03
13796;SHT30;40911;51.552;9.874;2022-08-02T13:28:48;29.77;46.53
13796;SHT30;40911;51.552;9.874;2022-08-02T13:31:10;30.43;47.03
13796;SHT30;40911;51.552;9.874;2022-08-02T13:33:31;29.34;46.32
13796;SHT30;40911;51.552;9.874;2022-08-02T13:35:54;29.88;47.03
13796;SHT30;40911;51.552;9.874;2022-08-02T13:38:16;29.92;45.22
13796;SHT30;40911;51.552;9.874;2022-08-02T13:40:37;29.74;46.33
13796;SHT30;40911;51.552;9.874;2022-08-02T13:43:20;29.78;46.38
13796;SHT30;40911;51.552;9.874;2022-08-02T13:45:41;29.11;45.95
13796;SHT30;40911;51.552;9.874;2022-08-02T13:48:03;29.85;47.09
13796;SHT30;40911;51.552;9.874;2022-08-02T13:50:25;29.40;47.16
13796;SHT30;40911;51.552;9.874;2022-08-02T13:52:47;28.69;47.91
13796;SHT30;40911;51.552;9.874;2022-08-02T13:55:09;28.69;47.35
13796;SHT30;40911;51.552;9.874;2022-08-02T13:57:30;30.33;46.59
13796;SHT30;40911;51.552;9.874;2022-08-02T13:59:52;29.20;47.41
13796;SHT30;40911;51.552;9.874;2022-08-02T14:02:13;29.80;45.04
13796;SHT30;40911;51.552;9.874;2022-08-02T14:04:35;30.10;46.75
13796;SHT30;40911;51.552;9.874;2022-08-02T14:06:57;30.09;45.59
13796;SHT30;40911;51.552;9.874;2022-08-02T14:09:20;29.31;45.79
13796;SHT30;40911;51.552;9.874;2022-08-02T14:11:42;29.71;45.72
13796;SHT30;40911;51.552;9.874;2022-08-02T14:14:03;29.91;45.31
13796;SHT30;40911;51.552;9.874;2022-08-02T14:16:25;29.48;46.44
13796;SHT30;40911;51.552;9.874;2022-08-02T14:18:46;29.58;47.38
13796;SHT30;40911;51.552;9.874;2022-08-02T14:21:08;29.57;47.10
13796;SHT30;40911;51.552;9.874;2022-08-02T14:23:29;29.38;46.42
13796;SHT30;40911;51.552;9.874;2022-08-02T14:25:53;29.30;46.39
13796;SHT30;40911;51.552;9.874;2022-08-02T14:28:15;28.68;46.40
13796;SHT30;40911;51.552;9.874;2022-08-02T14:30:36;29.29;48.42
13796;SHT30;40911;51.552;9.874;2022-08-02T14:32:58;29.46;47.40
13796;SHT30;40911;51.552;9.874;2022-08-02T14:35:19;29.44;47.38
13796;SHT30;40911;51.552;9.874;2022-08-02T14:37:41;28.65;47.73
13796;SHT30;40911;51.552;9.874;2022-08-02T14:40:03;28.75;49.20
13796;SHT30;40911;51.552;9.874;2022-08-02T14:42:25;29.27;49.10
13796;SHT30;40911;51.552;9.874;2022-08-02T14:44:47;28.72;48.02
13796;SHT30;40911;51.552;9.874;2022-08-02T14:47:08;28.38;48.82
13796;SHT30;40911;51.552;9.874;2022-08-02T14:49:30;28.35;49.12
13796;SHT30;40911;51.552;9.874;2022-08-02T14:51:52;28.62;49.15
13796;SHT30;40911;51.552;9.874;2022-08-02T14:54:14;29.57;48.28
13796;SHT30;40911;51.552;9.874;2022-08-02T14:56:35;29.43;49.70
13796;SHT30;40911;51.552;9.874;2022-08-02T14:58:58;29.41;48.88
13796;SHT30;40911;51.552;9.874;2022-08-02T15:01:20;28.85;47.25
13796;SHT30;40911;51.552;9.874;2022-08-02T15:03:41;29.04;48.71
13796;SHT30;40911;51.552;9.874;2022-08-02T15:06:03;28.78;47.24
13796;SHT30;40911;51.552;9.874;2022-08-02T15:08:24;28.83;47.41
13796;SHT30;40911;51.552;9.874;2022-08-02T15:10:46;28.79;48.10
13796;SHT30;40911;51.552;9.874;2022-08-02T15:13:07;29.04;47.12
13796;SHT30;40911;51.552;9.874;2022-08-02T15:15:30;29.77;48.38
13796;SHT30;40911;51.552;9.874;2022-08-02T15:17:51;29.33;47.80
13796;SHT30;40911;51.552;9.874;2022-08-02T15:20:13;28.92;48.22
13796;SHT30;40911;51.552;9.874;2022-08-02T15:22:34;29.30;47.59
13796;SHT30;40911;51.552;9.874;2022-08-02T15:24:56;29.23;46.97
13796;SHT30;40911;51.552;9.874;2022-08-02T15:27:17;30.29;46.86
13796;SHT30;40911;51.552;9.874;2022-08-02T15:29:39;29.31;47.15
13796;SHT30;40911;51.552;9.874;2022-08-02T15:32:02;30.65;46.83
13796;SHT30;40911;51.552;9.874;2022-08-02T15:34:23;29.19;46.76
13796;SHT30;40911;51.552;9.874;2022-08-02T15:36:45;29.57;46.82
13796;SHT30;40911;51.552;9.874;2022-08-02T15:39:06;30.19;48.20
13796;SHT30;40911;51.552;9.874;2022-08-02T15:41:28;30.44;47.24
13796;SHT30;40911;51.552;9.874;2022-08-02T15:43:49;28.91;46.44
13796;SHT30;40911;51.552;9.874;2022-08-02T15:46:11;30.50;46.64